Terminal Aerodrome Forecast
Issued by NWS

Home | Current Version | Previous Version | Text Only | Print | Product List | Glossary On
Versions: 1 2 3 4 5 6 7 8 9 10 11 12 13 14 15
908
FTUS44 KBMX 181740
TAFTOI
TAF
KTOI 181740Z 1818/1918 18009G17KT P6SM SCT030 OVC050
     FM182000 20012G22KT P6SM BKN035 OVC050
     FM190100 22012G24KT P6SM VCSH OVC040
     FM190300 25014G22KT P6SM VCSH OVC025
      TEMPO 1903/1905 4SM -RA OVC015
     FM190500 31015G25KT P6SM BKN025 OVC050
     FM190800 34011KT P6SM SCT025 BKN250=

USA.gov is the U.S. government's official web portal to all federal, state and local government web resources and services.